Terminal Aerodrome Forecast
Issued by NWS

Current Version | Previous Version | Text Only | Print | Product List | Glossary On
Versions: 1 2 3 4 5 6 7 8 9 10 11 12 13
000
FTUS42 KGSP 251444
TAFAND
TAF
KAND 251444Z 2512/2612 22003KT P6SM FEW080 BKN250
     FM251500 24006KT P6SM SCT060 BKN250
     FM260100 21003KT P6SM SCT070 BKN120=

USA.gov is the U.S. government's official web portal to all federal, state and local government web resources and services.